Terminal Aerodrome Forecast
Issued by NWS Dodge City, KS

Home | Current Version | Previous Version | Graphics & Text | Print | Product List | Glossary Off
Versions: 1 2 3 4 5 6 7 8 9 10 11 12 13 14 15 16 17 18 19 20 21 22 23 24 25 26 27 28 29 30 31 32 33 34 35 36 37 38 39 40 41 42 43 44 45 46 47 48 49 50

000
FTUS43 KDDC 161805 RRA
TAFDDC
TAF
KDDC 161805Z 1618/1718 09012KT P6SM VCTS SCT030CB
      TEMPO 1623/1701 VRB26G40KT 5SM +TSRAGS OVC030CB
     FM170200 14010KT P6SM VCTS OVC040CB
     FM170400 09010KT P6SM OVC030
     FM170600 09010KT P6SM VCTS OVC050CB=

USA.gov is the U.S. government's official web portal to all federal, state and local government web resources and services.